sensor_id;sensor_type;location;lat;lon;timestamp;pressure;altitude;pressure_sealevel;temperature;humidity
2397;BME280;1209;48.410;9.054;2024-02-23T00:01:20;94391.13;;;5.60;100.00
2397;BME280;1209;48.410;9.054;2024-02-23T00:03:45;94393.59;;;5.40;100.00
2397;BME280;1209;48.410;9.054;2024-02-23T00:06:11;94388.72;;;5.24;100.00
2397;BME280;1209;48.410;9.054;2024-02-23T00:08:37;94390.78;;;5.14;100.00
2397;BME280;1209;48.410;9.054;2024-02-23T00:11:03;94397.19;;;5.18;100.00
2397;BME280;1209;48.410;9.054;2024-02-23T00:13:28;94411.88;;;5.11;100.00
2397;BME280;1209;48.410;9.054;2024-02-23T00:15:54;94409.72;;;4.93;100.00
2397;BME280;1209;48.410;9.054;2024-02-23T00:18:19;94419.47;;;4.91;100.00
2397;BME280;1209;48.410;9.054;2024-02-23T00:20:46;94422.06;;;4.91;100.00
2397;BME280;1209;48.410;9.054;2024-02-23T00:23:12;94432.94;;;4.86;100.00
2397;BME280;1209;48.410;9.054;2024-02-23T00:25:37;94431.03;;;4.73;100.00
2397;BME280;1209;48.410;9.054;2024-02-23T00:28:02;94439.00;;;4.57;100.00
2397;BME280;1209;48.410;9.054;2024-02-23T00:30:28;94439.16;;;4.34;100.00
2397;BME280;1209;48.410;9.054;2024-02-23T00:32:53;94442.47;;;4.28;100.00
2397;BME280;1209;48.410;9.054;2024-02-23T00:35:18;94445.25;;;4.27;100.00
2397;BME280;1209;48.410;9.054;2024-02-23T00:37:44;94445.75;;;4.22;100.00
2397;BME280;1209;48.410;9.054;2024-02-23T00:40:10;94446.84;;;4.13;100.00
2397;BME280;1209;48.410;9.054;2024-02-23T00:42:35;94444.34;;;4.05;100.00
2397;BME280;1209;48.410;9.054;2024-02-23T00:45:01;94443.47;;;3.98;100.00
2397;BME280;1209;48.410;9.054;2024-02-23T00:47:26;94441.78;;;4.05;100.00
2397;BME280;1209;48.410;9.054;2024-02-23T00:49:52;94440.91;;;3.98;100.00
2397;BME280;1209;48.410;9.054;2024-02-23T00:52:17;94449.00;;;3.95;100.00
2397;BME280;1209;48.410;9.054;2024-02-23T00:54:42;94438.41;;;4.04;100.00
2397;BME280;1209;48.410;9.054;2024-02-23T00:57:08;94449.53;;;4.05;100.00
2397;BME280;1209;48.410;9.054;2024-02-23T00:59:33;94450.88;;;4.01;100.00
2397;BME280;1209;48.410;9.054;2024-02-23T01:01:59;94450.50;;;4.04;100.00
2397;BME280;1209;48.410;9.054;2024-02-23T01:04:24;94444.81;;;4.08;100.00
2397;BME280;1209;48.410;9.054;2024-02-23T01:06:49;94429.13;;;4.10;100.00
2397;BME280;1209;48.410;9.054;2024-02-23T01:09:15;94421.63;;;4.15;100.00
2397;BME280;1209;48.410;9.054;2024-02-23T01:11:45;94412.78;;;4.24;100.00
2397;BME280;1209;48.410;9.054;2024-02-23T01:14:11;94418.31;;;4.21;100.00
2397;BME280;1209;48.410;9.054;2024-02-23T01:16:36;94419.75;;;4.24;100.00
2397;BME280;1209;48.410;9.054;2024-02-23T01:19:01;94425.81;;;4.31;100.00
2397;BME280;1209;48.410;9.054;2024-02-23T01:21:28;94435.97;;;4.32;100.00
2397;BME280;1209;48.410;9.054;2024-02-23T01:23:53;94437.63;;;4.40;100.00
2397;BME280;1209;48.410;9.054;2024-02-23T01:26:19;94425.25;;;4.35;100.00
2397;BME280;1209;48.410;9.054;2024-02-23T01:28:44;94432.91;;;4.43;100.00
2397;BME280;1209;48.410;9.054;2024-02-23T01:31:11;94446.06;;;4.49;100.00
2397;BME280;1209;48.410;9.054;2024-02-23T01:33:39;94436.59;;;4.56;100.00
2397;BME280;1209;48.410;9.054;2024-02-23T01:36:07;94440.06;;;4.63;100.00
2397;BME280;1209;48.410;9.054;2024-02-23T01:38:32;94442.72;;;4.69;100.00
2397;BME280;1209;48.410;9.054;2024-02-23T01:40:59;94435.75;;;4.70;100.00
2397;BME280;1209;48.410;9.054;2024-02-23T01:43:24;94433.63;;;4.73;100.00
2397;BME280;1209;48.410;9.054;2024-02-23T01:45:50;94428.88;;;4.77;100.00
2397;BME280;1209;48.410;9.054;2024-02-23T01:48:16;94433.88;;;4.79;100.00
2397;BME280;1209;48.410;9.054;2024-02-23T01:50:42;94425.19;;;4.86;100.00
2397;BME280;1209;48.410;9.054;2024-02-23T01:53:10;94424.81;;;4.89;100.00
2397;BME280;1209;48.410;9.054;2024-02-23T01:55:40;94427.09;;;4.99;100.00
2397;BME280;1209;48.410;9.054;2024-02-23T01:58:05;94425.13;;;5.01;100.00
2397;BME280;1209;48.410;9.054;2024-02-23T02:00:31;94420.81;;;5.08;100.00
2397;BME280;1209;48.410;9.054;2024-02-23T02:02:56;94418.06;;;5.16;100.00
2397;BME280;1209;48.410;9.054;2024-02-23T02:05:22;94424.94;;;5.24;100.00
2397;BME280;1209;48.410;9.054;2024-02-23T02:07:53;94430.75;;;5.32;100.00
2397;BME280;1209;48.410;9.054;2024-02-23T02:10:19;94436.38;;;5.36;100.00
2397;BME280;1209;48.410;9.054;2024-02-23T02:12:45;94425.03;;;5.37;100.00
2397;BME280;1209;48.410;9.054;2024-02-23T02:15:11;94432.41;;;5.40;100.00
2397;BME280;1209;48.410;9.054;2024-02-23T02:17:37;94441.41;;;5.44;100.00
2397;BME280;1209;48.410;9.054;2024-02-23T02:20:03;94431.69;;;5.53;100.00
2397;BME280;1209;48.410;9.054;2024-02-23T02:22:34;94430.91;;;5.52;100.00
2397;BME280;1209;48.410;9.054;2024-02-23T02:24:59;94430.91;;;5.52;100.00
2397;BME280;1209;48.410;9.054;2024-02-23T02:27:25;94420.34;;;5.54;100.00
2397;BME280;1209;48.410;9.054;2024-02-23T02:29:50;94430.34;;;5.57;100.00
2397;BME280;1209;48.410;9.054;2024-02-23T02:32:16;94418.38;;;5.56;100.00
2397;BME280;1209;48.410;9.054;2024-02-23T02:34:42;94433.28;;;5.54;100.00
2397;BME280;1209;48.410;9.054;2024-02-23T02:37:07;94432.72;;;5.58;100.00
2397;BME280;1209;48.410;9.054;2024-02-23T02:39:33;94438.72;;;5.59;100.00
2397;BME280;1209;48.410;9.054;2024-02-23T02:41:58;94437.06;;;5.51;100.00
2397;BME280;1209;48.410;9.054;2024-02-23T02:44:23;94432.13;;;5.56;100.00
2397;BME280;1209;48.410;9.054;2024-02-23T02:46:49;94441.81;;;5.48;100.00
2397;BME280;1209;48.410;9.054;2024-02-23T02:49:14;94451.00;;;5.50;100.00
2397;BME280;1209;48.410;9.054;2024-02-23T02:51:41;94437.06;;;5.51;100.00
2397;BME280;1209;48.410;9.054;2024-02-23T02:54:07;94437.44;;;5.48;100.00
2397;BME280;1209;48.410;9.054;2024-02-23T02:56:32;94432.03;;;5.43;100.00
2397;BME280;1209;48.410;9.054;2024-02-23T02:58:57;94436.41;;;5.43;100.00
2397;BME280;1209;48.410;9.054;2024-02-23T03:01:22;94427.03;;;5.42;100.00
2397;BME280;1209;48.410;9.054;2024-02-23T03:03:48;94431.63;;;5.40;100.00
2397;BME280;1209;48.410;9.054;2024-02-23T03:06:13;94418.84;;;5.38;100.00
2397;BME280;1209;48.410;9.054;2024-02-23T03:08:38;94414.28;;;5.40;100.00
2397;BME280;1209;48.410;9.054;2024-02-23T03:11:06;94433.59;;;5.37;100.00
2397;BME280;1209;48.410;9.054;2024-02-23T03:13:31;94437.16;;;5.36;100.00
2397;BME280;1209;48.410;9.054;2024-02-23T03:15:56;94427.63;;;5.37;100.00
2397;BME280;1209;48.410;9.054;2024-02-23T03:18:22;94419.44;;;5.33;100.00
2397;BME280;1209;48.410;9.054;2024-02-23T03:20:47;94406.72;;;5.38;100.00
2397;BME280;1209;48.410;9.054;2024-02-23T03:23:12;94400.94;;;5.36;100.00
2397;BME280;1209;48.410;9.054;2024-02-23T03:25:38;94410.84;;;5.33;100.00
2397;BME280;1209;48.410;9.054;2024-02-23T03:28:05;94417.41;;;5.29;100.00
2397;BME280;1209;48.410;9.054;2024-02-23T03:30:30;94415.81;;;5.28;100.00
2397;BME280;1209;48.410;9.054;2024-02-23T03:32:55;94422.94;;;5.26;100.00
2397;BME280;1209;48.410;9.054;2024-02-23T03:35:20;94430.09;;;5.24;100.00
2397;BME280;1209;48.410;9.054;2024-02-23T03:37:46;94434.91;;;5.27;100.00
2397;BME280;1209;48.410;9.054;2024-02-23T03:40:11;94449.81;;;5.25;100.00
2397;BME280;1209;48.410;9.054;2024-02-23T03:42:37;94455.00;;;5.25;100.00
2397;BME280;1209;48.410;9.054;2024-02-23T03:45:04;94447.59;;;5.22;100.00
2397;BME280;1209;48.410;9.054;2024-02-23T03:47:29;94432.94;;;5.29;100.00
2397;BME280;1209;48.410;9.054;2024-02-23T03:49:55;94422.63;;;5.35;100.00
2397;BME280;1209;48.410;9.054;2024-02-23T03:52:20;94425.59;;;5.32;100.00
2397;BME280;1209;48.410;9.054;2024-02-23T03:54:45;94420.22;;;5.34;100.00
2397;BME280;1209;48.410;9.054;2024-02-23T03:57:11;94426.75;;;5.30;100.00
2397;BME280;1209;48.410;9.054;2024-02-23T03:59:36;94419.56;;;5.25;100.00
2397;BME280;1209;48.410;9.054;2024-02-23T04:02:02;94419.13;;;5.22;100.00
2397;BME280;1209;48.410;9.054;2024-02-23T04:04:28;94425.03;;;5.16;100.00
2397;BME280;1209;48.410;9.054;2024-02-23T04:06:53;94423.34;;;5.23;100.00
2397;BME280;1209;48.410;9.054;2024-02-23T04:09:19;94432.69;;;5.24;100.00
2397;BME280;1209;48.410;9.054;2024-02-23T04:11:47;94434.66;;;5.22;100.00
2397;BME280;1209;48.410;9.054;2024-02-23T04:14:12;94426.41;;;5.12;100.00
2397;BME280;1209;48.410;9.054;2024-02-23T04:16:37;94414.44;;;5.11;100.00
2397;BME280;1209;48.410;9.054;2024-02-23T04:19:03;94415.31;;;5.18;100.00
2397;BME280;1209;48.410;9.054;2024-02-23T04:21:28;94403.72;;;5.14;100.00
2397;BME280;1209;48.410;9.054;2024-02-23T04:23:53;94394.97;;;5.15;100.00
2397;BME280;1209;48.410;9.054;2024-02-23T04:26:19;94399.78;;;5.18;100.00
2397;BME280;1209;48.410;9.054;2024-02-23T04:28:44;94412.47;;;5.13;100.00
2397;BME280;1209;48.410;9.054;2024-02-23T04:31:09;94407.50;;;5.11;100.00
2397;BME280;1209;48.410;9.054;2024-02-23T04:33:35;94395.44;;;4.97;100.00
2397;BME280;1209;48.410;9.054;2024-02-23T04:36:02;94399.63;;;4.98;100.00
2397;BME280;1209;48.410;9.054;2024-02-23T04:38:28;94391.88;;;4.98;100.00
2397;BME280;1209;48.410;9.054;2024-02-23T04:40:53;94383.59;;;5.09;100.00
2397;BME280;1209;48.410;9.054;2024-02-23T04:43:19;94398.19;;;5.17;100.00
2397;BME280;1209;48.410;9.054;2024-02-23T04:45:44;94401.75;;;5.16;100.00
2397;BME280;1209;48.410;9.054;2024-02-23T04:48:09;94393.72;;;5.04;100.00
2397;BME280;1209;48.410;9.054;2024-02-23T04:50:35;94389.97;;;4.85;100.00
2397;BME280;1209;48.410;9.054;2024-02-23T04:53:00;94380.66;;;4.91;100.00
2397;BME280;1209;48.410;9.054;2024-02-23T04:55:25;94378.19;;;5.04;100.00
2397;BME280;1209;48.410;9.054;2024-02-23T04:57:51;94391.00;;;4.91;100.00
2397;BME280;1209;48.410;9.054;2024-02-23T05:00:16;94392.94;;;4.82;100.00
2397;BME280;1209;48.410;9.054;2024-02-23T05:02:42;94394.84;;;4.73;100.00
2397;BME280;1209;48.410;9.054;2024-02-23T05:05:08;94399.84;;;4.75;100.00
2397;BME280;1209;48.410;9.054;2024-02-23T05:07:34;94405.84;;;5.03;100.00
2397;BME280;1209;48.410;9.054;2024-02-23T05:09:59;94412.13;;;4.94;100.00
2397;BME280;1209;48.410;9.054;2024-02-23T05:12:25;94413.31;;;4.92;100.00
2397;BME280;1209;48.410;9.054;2024-02-23T05:14:51;94419.66;;;4.89;100.00
2397;BME280;1209;48.410;9.054;2024-02-23T05:17:16;94424.88;;;4.96;100.00
2397;BME280;1209;48.410;9.054;2024-02-23T05:19:41;94416.00;;;5.05;100.00
2397;BME280;1209;48.410;9.054;2024-02-23T05:22:06;94417.41;;;5.07;100.00
2397;BME280;1209;48.410;9.054;2024-02-23T05:24:32;94421.13;;;4.98;100.00
2397;BME280;1209;48.410;9.054;2024-02-23T05:26:57;94426.72;;;5.02;100.00
2397;BME280;1209;48.410;9.054;2024-02-23T05:29:28;94426.16;;;5.06;100.00
2397;BME280;1209;48.410;9.054;2024-02-23T05:31:53;94421.91;;;4.99;100.00
2397;BME280;1209;48.410;9.054;2024-02-23T05:34:19;94419.53;;;4.97;100.00
2397;BME280;1209;48.410;9.054;2024-02-23T05:36:45;94430.78;;;4.90;100.00
2397;BME280;1209;48.410;9.054;2024-02-23T05:39:14;94432.41;;;4.91;100.00
2397;BME280;1209;48.410;9.054;2024-02-23T05:41:41;94430.00;;;4.89;100.00
2397;BME280;1209;48.410;9.054;2024-02-23T05:44:06;94429.63;;;4.92;100.00
2397;BME280;1209;48.410;9.054;2024-02-23T05:46:33;94434.19;;;4.90;100.00
2397;BME280;1209;48.410;9.054;2024-02-23T05:48:58;94440.16;;;4.91;100.00
2397;BME280;1209;48.410;9.054;2024-02-23T05:51:23;94455.06;;;4.89;100.00
2397;BME280;1209;48.410;9.054;2024-02-23T05:53:49;94450.63;;;4.83;100.00
2397;BME280;1209;48.410;9.054;2024-02-23T05:56:15;94440.03;;;4.78;100.00
2397;BME280;1209;48.410;9.054;2024-02-23T05:58:40;94444.41;;;4.77;100.00
2397;BME280;1209;48.410;9.054;2024-02-23T06:01:05;94442.88;;;4.83;100.00
2397;BME280;1209;48.410;9.054;2024-02-23T06:03:32;94444.84;;;4.81;100.00
2397;BME280;1209;48.410;9.054;2024-02-23T06:05:57;94459.72;;;4.79;100.00
2397;BME280;1209;48.410;9.054;2024-02-23T06:08:23;94456.09;;;4.73;100.00
2397;BME280;1209;48.410;9.054;2024-02-23T06:10:48;94459.91;;;4.77;100.00
2397;BME280;1209;48.410;9.054;2024-02-23T06:13:13;94456.78;;;4.82;100.00
2397;BME280;1209;48.410;9.054;2024-02-23T06:15:39;94452.78;;;4.79;100.00
2397;BME280;1209;48.410;9.054;2024-02-23T06:18:04;94457.38;;;4.84;100.00
2397;BME280;1209;48.410;9.054;2024-02-23T06:20:30;94461.34;;;4.80;100.00
2397;BME280;1209;48.410;9.054;2024-02-23T06:22:55;94464.16;;;4.85;100.00
2397;BME280;1209;48.410;9.054;2024-02-23T06:25:20;94456.78;;;4.82;100.00
2397;BME280;1209;48.410;9.054;2024-02-23T06:27:46;94448.66;;;4.85;100.00
2397;BME280;1209;48.410;9.054;2024-02-23T06:30:11;94447.28;;;4.89;100.00
2397;BME280;1209;48.410;9.054;2024-02-23T06:32:36;94442.50;;;4.86;100.00
2397;BME280;1209;48.410;9.054;2024-02-23T06:35:02;94441.06;;;4.83;100.00
2397;BME280;1209;48.410;9.054;2024-02-23T06:37:28;94440.34;;;4.89;100.00
2397;BME280;1209;48.410;9.054;2024-02-23T06:39:53;94443.59;;;4.77;100.00
2397;BME280;1209;48.410;9.054;2024-02-23T06:42:20;94443.28;;;4.86;100.00
2397;BME280;1209;48.410;9.054;2024-02-23T06:44:45;94446.69;;;4.87;100.00
2397;BME280;1209;48.410;9.054;2024-02-23T06:47:11;94442.91;;;4.89;100.00
2397;BME280;1209;48.410;9.054;2024-02-23T06:49:37;94446.00;;;4.78;100.00
2397;BME280;1209;48.410;9.054;2024-02-23T06:52:06;94445.19;;;4.78;100.00
2397;BME280;1209;48.410;9.054;2024-02-23T06:54:31;94454.19;;;4.82;100.00
2397;BME280;1209;48.410;9.054;2024-02-23T06:56:56;94449.13;;;4.73;100.00
2397;BME280;1209;48.410;9.054;2024-02-23T06:59:22;94452.34;;;4.76;100.00
2397;BME280;1209;48.410;9.054;2024-02-23T07:01:50;94457.94;;;4.79;100.00
2397;BME280;1209;48.410;9.054;2024-02-23T07:04:15;94456.09;;;4.73;100.00
2397;BME280;1209;48.410;9.054;2024-02-23T07:06:40;94459.03;;;4.70;100.00
2397;BME280;1209;48.410;9.054;2024-02-23T07:09:06;94455.25;;;4.72;100.00
2397;BME280;1209;48.410;9.054;2024-02-23T07:11:31;94457.84;;;4.72;100.00
2397;BME280;1209;48.410;9.054;2024-02-23T07:13:57;94458.94;;;4.78;100.00
2397;BME280;1209;48.410;9.054;2024-02-23T07:16:22;94455.78;;;4.83;100.00
2397;BME280;1209;48.410;9.054;2024-02-23T07:18:48;94460.97;;;4.83;100.00
2397;BME280;1209;48.410;9.054;2024-02-23T07:21:13;94471.75;;;4.86;100.00
2397;BME280;1209;48.410;9.054;2024-02-23T07:23:38;94470.56;;;4.89;100.00
2397;BME280;1209;48.410;9.054;2024-02-23T07:26:04;94465.47;;;4.95;100.00
2397;BME280;1209;48.410;9.054;2024-02-23T07:28:29;94469.41;;;4.91;100.00
2397;BME280;1209;48.410;9.054;2024-02-23T07:30:54;94468.78;;;4.89;100.00
2397;BME280;1209;48.410;9.054;2024-02-23T07:33:19;94466.63;;;4.93;100.00
2397;BME280;1209;48.410;9.054;2024-02-23T07:35:45;94474.44;;;4.99;100.00
2397;BME280;1209;48.410;9.054;2024-02-23T07:38:10;94474.88;;;5.03;100.00
2397;BME280;1209;48.410;9.054;2024-02-23T07:40:35;94477.09;;;5.06;100.00
2397;BME280;1209;48.410;9.054;2024-02-23T07:43:01;94480.00;;;4.96;100.00
2397;BME280;1209;48.410;9.054;2024-02-23T07:45:26;94484.06;;;5.05;100.00
2397;BME280;1209;48.410;9.054;2024-02-23T07:47:51;94488.06;;;5.08;100.00
2397;BME280;1209;48.410;9.054;2024-02-23T07:50:17;94485.78;;;5.20;100.00
2397;BME280;1209;48.410;9.054;2024-02-23T07:52:44;94486.88;;;5.11;100.00
2397;BME280;1209;48.410;9.054;2024-02-23T07:55:09;94482.09;;;5.07;100.00
2397;BME280;1209;48.410;9.054;2024-02-23T07:57:34;94482.63;;;5.03;100.00
2397;BME280;1209;48.410;9.054;2024-02-23T08:00:00;94482.22;;;4.99;100.00
2397;BME280;1209;48.410;9.054;2024-02-23T08:02:25;94470.13;;;5.06;100.00
2397;BME280;1209;48.410;9.054;2024-02-23T08:04:51;94463.03;;;5.15;100.00
2397;BME280;1209;48.410;9.054;2024-02-23T08:07:17;94465.94;;;5.05;100.00
2397;BME280;1209;48.410;9.054;2024-02-23T08:09:42;94467.84;;;5.18;100.00
2397;BME280;1209;48.410;9.054;2024-02-23T08:12:08;94469.09;;;5.22;100.00
2397;BME280;1209;48.410;9.054;2024-02-23T08:14:33;94467.19;;;5.10;100.00
2397;BME280;1209;48.410;9.054;2024-02-23T08:16:58;94471.97;;;5.13;100.00
2397;BME280;1209;48.410;9.054;2024-02-23T08:19:24;94485.91;;;5.12;100.00
2397;BME280;1209;48.410;9.054;2024-02-23T08:21:49;94490.94;;;5.20;100.00
2397;BME280;1209;48.410;9.054;2024-02-23T08:24:15;94490.94;;;5.20;100.00
2397;BME280;1209;48.410;9.054;2024-02-23T08:26:40;94499.41;;;5.28;100.00
2397;BME280;1209;48.410;9.054;2024-02-23T08:29:07;94513.38;;;5.34;100.00
2397;BME280;1209;48.410;9.054;2024-02-23T08:31:33;94508.97;;;5.28;100.00
2397;BME280;1209;48.410;9.054;2024-02-23T08:33:59;94510.06;;;5.40;100.00
2397;BME280;1209;48.410;9.054;2024-02-23T08:36:24;94512.16;;;5.30;100.00
2397;BME280;1209;48.410;9.054;2024-02-23T08:38:49;94515.59;;;5.37;100.00
2397;BME280;1209;48.410;9.054;2024-02-23T08:41:15;94508.22;;;5.34;100.00
2397;BME280;1209;48.410;9.054;2024-02-23T08:43:40;94501.44;;;5.33;100.00
2397;BME280;1209;48.410;9.054;2024-02-23T08:46:06;94497.63;;;5.29;100.00
2397;BME280;1209;48.410;9.054;2024-02-23T08:48:31;94488.75;;;5.38;100.00
2397;BME280;1209;48.410;9.054;2024-02-23T08:50:56;94489.09;;;5.35;100.00
2397;BME280;1209;48.410;9.054;2024-02-23T08:53:22;94483.81;;;5.43;100.00
2397;BME280;1209;48.410;9.054;2024-02-23T08:55:47;94494.53;;;5.40;100.00
2397;BME280;1209;48.410;9.054;2024-02-23T08:58:12;94494.91;;;5.37;100.00
2397;BME280;1209;48.410;9.054;2024-02-23T09:00:38;94488.38;;;5.41;100.00
2397;BME280;1209;48.410;9.054;2024-02-23T09:03:03;94488.75;;;5.38;100.00
2397;BME280;1209;48.410;9.054;2024-02-23T09:05:29;94494.56;;;5.47;100.00
2397;BME280;1209;48.410;9.054;2024-02-23T09:07:54;94496.97;;;5.48;100.00
2397;BME280;1209;48.410;9.054;2024-02-23T09:10:20;94500.00;;;5.52;100.00
2397;BME280;1209;48.410;9.054;2024-02-23T09:12:45;94494.00;;;5.51;100.00
2397;BME280;1209;48.410;9.054;2024-02-23T09:15:10;94489.69;;;5.58;100.00
2397;BME280;1209;48.410;9.054;2024-02-23T09:17:36;94495.28;;;5.62;100.00
2397;BME280;1209;48.410;9.054;2024-02-23T09:20:01;94491.34;;;5.66;100.00
2397;BME280;1209;48.410;9.054;2024-02-23T09:22:26;94490.59;;;5.72;100.00
2397;BME280;1209;48.410;9.054;2024-02-23T09:24:52;94495.59;;;5.74;100.00
2397;BME280;1209;48.410;9.054;2024-02-23T09:27:20;94499.78;;;5.75;100.00
2397;BME280;1209;48.410;9.054;2024-02-23T09:29:46;94500.41;;;5.77;100.00
2397;BME280;1209;48.410;9.054;2024-02-23T09:32:11;94496.97;;;5.97;100.00
2397;BME280;1209;48.410;9.054;2024-02-23T09:34:36;94499.81;;;6.09;100.00
2397;BME280;1209;48.410;9.054;2024-02-23T09:37:02;94497.91;;;6.18;100.00
2397;BME280;1209;48.410;9.054;2024-02-23T09:39:27;94496.44;;;6.43;100.00
2397;BME280;1209;48.410;9.054;2024-02-23T09:41:55;94491.03;;;6.38;100.00
2397;BME280;1209;48.410;9.054;2024-02-23T09:44:27;94492.31;;;6.62;100.00
2397;BME280;1209;48.410;9.054;2024-02-23T09:46:58;94499.66;;;6.52;100.00
2397;BME280;1209;48.410;9.054;2024-02-23T09:49:23;94496.94;;;6.67;99.20
2397;BME280;1209;48.410;9.054;2024-02-23T09:51:49;94500.56;;;6.79;100.00
2397;BME280;1209;48.410;9.054;2024-02-23T09:54:14;94504.00;;;6.92;99.98
2397;BME280;1209;48.410;9.054;2024-02-23T09:56:39;94498.78;;;6.79;97.56
2397;BME280;1209;48.410;9.054;2024-02-23T09:59:04;94502.78;;;6.88;97.83
2397;BME280;1209;48.410;9.054;2024-02-23T10:01:31;94505.56;;;6.87;97.81
2397;BME280;1209;48.410;9.054;2024-02-23T10:03:59;94514.78;;;6.96;98.87
2397;BME280;1209;48.410;9.054;2024-02-23T10:06:25;94515.41;;;7.05;98.41
2397;BME280;1209;48.410;9.054;2024-02-23T10:08:50;94516.97;;;6.92;96.34
2397;BME280;1209;48.410;9.054;2024-02-23T10:11:23;94517.38;;;7.03;98.92
2397;BME280;1209;48.410;9.054;2024-02-23T10:13:49;94519.19;;;7.09;95.75
2397;BME280;1209;48.410;9.054;2024-02-23T10:16:18;94520.59;;;7.05;94.39
2397;BME280;1209;48.410;9.054;2024-02-23T10:18:46;94512.59;;;7.00;97.77
2397;BME280;1209;48.410;9.054;2024-02-23T10:21:12;94498.09;;;7.25;95.85
2397;BME280;1209;48.410;9.054;2024-02-23T10:23:37;94497.69;;;7.15;94.30
2397;BME280;1209;48.410;9.054;2024-02-23T10:26:05;94504.97;;;6.85;93.25
2397;BME280;1209;48.410;9.054;2024-02-23T10:28:30;94510.06;;;7.13;100.00
2397;BME280;1209;48.410;9.054;2024-02-23T10:30:56;94514.00;;;7.09;98.79
2397;BME280;1209;48.410;9.054;2024-02-23T10:33:22;94519.84;;;7.17;95.95
2397;BME280;1209;48.410;9.054;2024-02-23T10:35:54;94517.25;;;7.11;96.03
2397;BME280;1209;48.410;9.054;2024-02-23T10:38:22;94512.19;;;7.03;93.96
2397;BME280;1209;48.410;9.054;2024-02-23T10:40:49;94512.41;;;7.01;95.94
2397;BME280;1209;48.410;9.054;2024-02-23T10:43:19;94519.53;;;6.79;96.40
2397;BME280;1209;48.410;9.054;2024-02-23T10:45:46;94515.56;;;6.90;95.31
2397;BME280;1209;48.410;9.054;2024-02-23T10:48:11;94508.78;;;6.95;96.31
2397;BME280;1209;48.410;9.054;2024-02-23T10:50:37;94518.78;;;6.99;97.87
2397;BME280;1209;48.410;9.054;2024-02-23T10:53:07;94514.59;;;7.04;96.14
2397;BME280;1209;48.410;9.054;2024-02-23T10:55:36;94505.63;;;7.07;99.21
2397;BME280;1209;48.410;9.054;2024-02-23T10:58:02;94508.81;;;7.09;98.16
2397;BME280;1209;48.410;9.054;2024-02-23T11:00:28;94505.25;;;7.10;98.29
2397;BME280;1209;48.410;9.054;2024-02-23T11:02:54;94504.81;;;7.00;100.00
2397;BME280;1209;48.410;9.054;2024-02-23T11:05:20;94492.09;;;7.18;100.00
2397;BME280;1209;48.410;9.054;2024-02-23T11:07:47;94500.09;;;7.30;100.00
2397;BME280;1209;48.410;9.054;2024-02-23T11:10:17;94493.28;;;7.22;100.00
2397;BME280;1209;48.410;9.054;2024-02-23T11:12:43;94502.66;;;7.16;100.00
2397;BME280;1209;48.410;9.054;2024-02-23T11:15:09;94502.09;;;7.34;100.00
2397;BME280;1209;48.410;9.054;2024-02-23T11:17:50;94496.91;;;7.28;99.34
2397;BME280;1209;48.410;9.054;2024-02-23T11:20:16;94500.88;;;7.30;98.35
2397;BME280;1209;48.410;9.054;2024-02-23T11:22:41;94491.69;;;7.28;97.58
2397;BME280;1209;48.410;9.054;2024-02-23T11:25:07;94488.91;;;7.42;100.00
2397;BME280;1209;48.410;9.054;2024-02-23T11:27:37;94496.50;;;7.37;100.00
2397;BME280;1209;48.410;9.054;2024-02-23T11:30:07;94488.13;;;7.48;100.00
2397;BME280;1209;48.410;9.054;2024-02-23T11:32:40;94492.91;;;7.51;99.05
2397;BME280;1209;48.410;9.054;2024-02-23T11:35:16;94491.09;;;7.45;100.00
2397;BME280;1209;48.410;9.054;2024-02-23T11:37:55;94489.50;;;7.38;100.00
2397;BME280;1209;48.410;9.054;2024-02-23T11:40:29;94481.47;;;7.00;100.00
2397;BME280;1209;48.410;9.054;2024-02-23T11:42:55;94482.72;;;7.30;100.00
2397;BME280;1209;48.410;9.054;2024-02-23T11:45:21;94486.13;;;7.31;100.00
2397;BME280;1209;48.410;9.054;2024-02-23T11:47:47;94488.50;;;7.52;100.00
2397;BME280;1209;48.410;9.054;2024-02-23T11:50:13;94488.91;;;7.29;100.00
2397;BME280;1209;48.410;9.054;2024-02-23T11:52:39;94488.53;;;7.58;100.00
2397;BME280;1209;48.410;9.054;2024-02-23T11:55:05;94495.69;;;7.37;100.00
2397;BME280;1209;48.410;9.054;2024-02-23T11:57:33;94487.72;;;7.78;100.00
2397;BME280;1209;48.410;9.054;2024-02-23T11:59:58;94480.91;;;7.31;100.00
2397;BME280;1209;48.410;9.054;2024-02-23T12:02:24;94484.16;;;7.59;100.00
2397;BME280;1209;48.410;9.054;2024-02-23T12:04:49;94479.72;;;7.33;100.00
2397;BME280;1209;48.410;9.054;2024-02-23T12:07:15;94475.72;;;7.24;100.00
2397;BME280;1209;48.410;9.054;2024-02-23T12:09:41;94468.94;;;7.36;100.00
2397;BME280;1209;48.410;9.054;2024-02-23T12:12:07;94460.16;;;7.57;100.00
2397;BME280;1209;48.410;9.054;2024-02-23T12:14:35;94458.16;;;7.33;100.00
2397;BME280;1209;48.410;9.054;2024-02-23T12:17:02;94454.75;;;7.32;100.00
2397;BME280;1209;48.410;9.054;2024-02-23T12:19:29;94465.75;;;7.54;100.00
2397;BME280;1209;48.410;9.054;2024-02-23T12:21:59;94468.97;;;7.63;100.00
2397;BME280;1209;48.410;9.054;2024-02-23T12:24:25;94459.34;;;7.30;100.00
2397;BME280;1209;48.410;9.054;2024-02-23T12:26:54;94453.56;;;7.41;100.00
2397;BME280;1209;48.410;9.054;2024-02-23T12:29:20;94461.94;;;7.30;100.00
2397;BME280;1209;48.410;9.054;2024-02-23T12:31:45;94465.75;;;7.41;100.00
2397;BME280;1209;48.410;9.054;2024-02-23T12:34:11;94466.34;;;7.76;100.00
2397;BME280;1209;48.410;9.054;2024-02-23T12:36:38;94456.75;;;7.70;100.00
2397;BME280;1209;48.410;9.054;2024-02-23T12:39:04;94455.38;;;7.67;100.00
2397;BME280;1209;48.410;9.054;2024-02-23T12:41:29;94456.75;;;7.70;100.00
2397;BME280;1209;48.410;9.054;2024-02-23T12:43:54;94455.94;;;7.56;100.00
2397;BME280;1209;48.410;9.054;2024-02-23T12:46:20;94451.38;;;7.65;100.00
2397;BME280;1209;48.410;9.054;2024-02-23T12:48:45;94446.78;;;7.67;100.00
2397;BME280;1209;48.410;9.054;2024-02-23T12:51:11;94439.56;;;7.49;100.00
2397;BME280;1209;48.410;9.054;2024-02-23T12:53:38;94449.38;;;7.60;100.00
2397;BME280;1209;48.410;9.054;2024-02-23T12:56:05;94445.16;;;7.72;100.00
2397;BME280;1209;48.410;9.054;2024-02-23T12:58:38;94442.97;;;7.63;100.00
2397;BME280;1209;48.410;9.054;2024-02-23T13:01:04;94452.16;;;7.52;100.00
2397;BME280;1209;48.410;9.054;2024-02-23T13:03:31;94447.38;;;7.69;100.00
2397;BME280;1209;48.410;9.054;2024-02-23T13:05:57;94448.16;;;7.76;100.00
2397;BME280;1209;48.410;9.054;2024-02-23T13:08:24;94455.75;;;7.77;100.00
2397;BME280;1209;48.410;9.054;2024-02-23T13:10:50;94450.72;;;7.89;100.00
2397;BME280;1209;48.410;9.054;2024-02-23T13:13:16;94457.31;;;7.98;100.00
2397;BME280;1209;48.410;9.054;2024-02-23T13:15:43;94447.13;;;7.97;100.00